Terminal Aerodrome Forecast
Issued by NWS Tampa Bay Area, FL

Home | Current Version | Previous Version | Text Only | Print | Product List | Glossary Off
Versions: 1 2 3 4 5 6 7 8 9 10 11 12 13 14 15

000
FTUS42 KTBW 181305 AAA
TAFSRQ
TAF AMD
KSRQ 181305Z 1813/1912 15005KT 6SM BR SCT005 BKN250
      TEMPO 1813/1814 3SM BR BKN003
     FM181400 24008KT P6SM SCT050 BKN250
     FM182000 27009KT P6SM SCT025 BKN050
     FM190000 VRB05KT P6SM SCT030 BKN100
     FM190800 13003KT P6SM SCT250=

USA.gov is the U.S. government's official web portal to all federal, state and local government web resources and services.